ADDS METAR Data INFO
IDs: Format: Raw Decoded Include TAF

Data at: 0731 UTC 18 Oct 2017

KSUT 180705Z AUTO 01006KT 10SM CLR 10/08 A3026 RMK AO2 T01000075
KSUT 180645Z AUTO 36005KT 10SM CLR 10/07 A3027 RMK AO2 T00970072
KSUT 180625Z AUTO 01005KT 10SM CLR 10/07 A3027 RMK AO2 T00970070
KSUT 180605Z AUTO 01004KT 10SM CLR 10/07 A3028 RMK AO2 T00970067
KSUT 180545Z AUTO 01005KT 10SM CLR 10/07 A3028 RMK AO2 T01020065
KSUT 180525Z AUTO 36005KT 10SM CLR 10/06 A3028 RMK AO2 T01020062
KSUT 180505Z AUTO 01005KT 10SM CLR 10/06 A3028 RMK AO2 T01020063
KSUT 180445Z AUTO 01004KT 10SM CLR 11/07 A3028 RMK AO2 T01050065
KSUT 180425Z AUTO 01004KT 10SM CLR 11/07 A3029 RMK AO2 T01070065
KSUT 180405Z AUTO 01005KT 10SM CLR 11/07 A3029 RMK AO2 T01080066
KSUT 180345Z AUTO 01005KT 10SM CLR 11/07 A3029 RMK AO2 T01080072
KSUT 180325Z AUTO 01004KT 10SM CLR 11/08 A3030 RMK AO2 T01080076
KSUT 180305Z AUTO 01003KT 10SM CLR 11/08 A3029 RMK AO2 T01080076
KSUT 180245Z AUTO 01004KT 10SM CLR 11/08 A3029 RMK AO2 T01100078
KSUT 180225Z AUTO 01004KT 10SM CLR 11/08 A3029 RMK AO2 T01120077
KSUT 180205Z AUTO 01004KT 10SM CLR 11/08 A3029 RMK AO2 T01130076
KSUT 180145Z AUTO 01003KT 10SM CLR 11/07 A3029 RMK AO2 T01130074
KSUT 180125Z AUTO 01003KT 10SM CLR 12/07 A3029 RMK AO2 T01170073
KSUT 180105Z AUTO 01003KT 10SM CLR 12/07 A3028 RMK AO2 T01170072
KSUT 180045Z AUTO 01003KT 10SM CLR 12/07 A3028 RMK AO2 T01210072
KSUT 180025Z AUTO 01003KT 10SM CLR 12/07 A3027 RMK AO2 T01220069
KSUT 180005Z AUTO 00000KT 10SM CLR 12/07 A3028 RMK AO2 T01240071
KSUT 172345Z AUTO 00000KT 10SM CLR 13/07 A3027 RMK AO2 T01250070
KSUT 172325Z AUTO 00000KT 10SM CLR 13/07 A3027 RMK AO2 T01290073
KSUT 172305Z AUTO 00000KT 10SM CLR 14/07 A3027 RMK AO2 T01350070
KSUT 172245Z AUTO 02003KT 10SM CLR 15/06 A3026 RMK AO2 T01480060
KSUT 172225Z AUTO 03005KT 10SM CLR 16/06 A3026 RMK AO2 T01600055
KSUT 172205Z AUTO 03006KT 10SM CLR 17/06 A3026 RMK AO2 T01660055
KSUT 172145Z AUTO 03005KT 10SM CLR 17/06 A3025 RMK AO2 T01660060
KSUT 172125Z AUTO 02008KT 10SM CLR 17/08 A3025 RMK AO2 T01660075
KSUT 172105Z AUTO 02005KT 10SM CLR 17/07 A3025 RMK AO2 T01660074
KSUT 172045Z AUTO 01007KT 10SM CLR 17/08 A3025 RMK AO2 T01670077
KSUT 172025Z AUTO 01006KT 10SM CLR 17/08 A3025 RMK AO2 T01690078
KSUT 172005Z AUTO 02008KT 10SM CLR 17/08 A3025 RMK AO2 T01690079
KSUT 171945Z AUTO 01009KT 10SM CLR 17/09 A3025 RMK AO2 T01710085
KSUT 171925Z AUTO 02007KT 10SM CLR 18/09 A3026 RMK AO2 T01750087
KSUT 171905Z AUTO 03007G10KT 10SM CLR 17/08 A3025 RMK AO2 T01720083
KSUT 171845Z AUTO 02010G15KT 10SM CLR 17/08 A3026 RMK AO2 T01720081
KSUT 171825Z AUTO 03010G16KT 10SM CLR 18/08 A3026 RMK AO2 T01750080
KSUT 171805Z AUTO 03011KT 10SM CLR 17/08 A3025 RMK AO2 T01710077
KSUT 171745Z AUTO 01009G16KT 10SM CLR 17/08 A3026 RMK AO2 T01710076
KSUT 171725Z AUTO 03008G15KT 10SM CLR 18/08 A3026 RMK AO2 T01750078
KSUT 171705Z AUTO 02012G17KT 10SM CLR 18/08 A3027 RMK AO2 T01750075
KSUT 171645Z AUTO 02012G16KT 10SM CLR 19/08 A3027 RMK AO2 T01850076
KSUT 171625Z AUTO 02011G20KT 10SM CLR 18/07 A3028 RMK AO2 T01790071
KSUT 171605Z AUTO 02012G19KT 10SM CLR 17/07 A3028 RMK AO2 T01730071
KSUT 171545Z AUTO 01008G15KT 10SM CLR 17/07 A3028 RMK AO2 T01710071
KSUT 171525Z AUTO 02008G15KT 10SM CLR 17/07 A3029 RMK AO2 T01660069
KSUT 171505Z AUTO 01012G16KT 10SM CLR 16/07 A3028 RMK AO2 T01560066
KSUT 171445Z AUTO 01011G14KT 10SM CLR 15/06 A3028 RMK AO2 T01480063
KSUT 171425Z AUTO 02010KT 10SM CLR 14/06 A3028 RMK AO2 T01420058
KSUT 171405Z AUTO 01010G15KT 10SM CLR 14/06 A3027 RMK AO2 T01370058
KSUT 171345Z AUTO 02012G18KT 10SM CLR 13/06 A3027 RMK AO2 T01330057
KSUT 171325Z AUTO 01011G14KT 10SM CLR 13/06 A3026 RMK AO2 T01300059
KSUT 171305Z AUTO 36011G17KT 10SM CLR 13/06 A3026 RMK AO2 T01280058
KSUT 171245Z AUTO 01012G16KT 10SM CLR 13/06 A3025 RMK AO2 T01270058
KSUT 171225Z AUTO 01010KT 10SM CLR 12/06 A3024 RMK AO2 T01220059
KSUT 171205Z AUTO 01010G14KT 10SM CLR 12/06 A3023 RMK AO2 T01170060
KSUT 171145Z AUTO 01010G17KT 10SM CLR 12/06 A3022 RMK AO2 T01150060
KSUT 171125Z AUTO 01011G17KT 10SM CLR 11/06 A3021 RMK AO2 T01120058
KSUT 171105Z AUTO 02010G16KT 10SM CLR 11/06 A3020 RMK AO2 T01130060
KSUT 171045Z AUTO 01011G15KT 10SM CLR 11/06 A3020 RMK AO2 T01140060
KSUT 171025Z AUTO 02011G15KT 10SM CLR 12/06 A3019 RMK AO2 T01160060
KSUT 171005Z AUTO 01010G18KT 10SM CLR 12/06 A3019 RMK AO2 T01180057
KSUT 170945Z AUTO 01010KT 10SM CLR 13/05 A3018 RMK AO2 T01250053
KSUT 170925Z AUTO 02008G16KT 10SM CLR 13/05 A3017 RMK AO2 T01260048
KSUT 170905Z AUTO 02009KT 10SM CLR 13/05 A3017 RMK AO2 T01290047
KSUT 170845Z AUTO 02010G18KT 10SM CLR 13/05 A3016 RMK AO2 T01300050
KSUT 170825Z AUTO 02009G16KT 10SM CLR 13/05 A3015 RMK AO2 T01340051
KSUT 170805Z AUTO 02011G21KT 10SM CLR 14/05 A3015 RMK AO2 T01360051
KSUT 170745Z AUTO 02012KT 10SM CLR 14/05 A3015 RMK AO2 T01370053
KSUT 170725Z AUTO 02012G15KT 10SM CLR 14/05 A3015 RMK AO2 T01410052
KSUT 170705Z AUTO 02013G21KT 10SM CLR 15/05 A3015 RMK AO2 T01450052
KSUT 170645Z AUTO 03014G22KT 10SM SCT060 15/05 A3015 RMK AO2 T01480052
KSUT 170625Z AUTO 03012G22KT 10SM BKN060 15/06 A3015 RMK AO2 T01510058
KSUT 170605Z AUTO 02013G17KT 10SM OVC060 16/07 A3015 RMK AO2 T01560065
KSUT 170545Z AUTO 03012G19KT 10SM OVC060 16/07 A3015 RMK AO2 T01560072
KSUT 170525Z AUTO 03014G19KT 10SM OVC060 16/08 A3015 RMK AO2 T01570078
KSUT 170505Z AUTO 02012G19KT 10SM OVC060 16/08 A3014 RMK AO2 T01570083
KSUT 170445Z AUTO 02011G16KT 10SM OVC060 16/09 A3014 RMK AO2 T01590086
KSUT 170425Z AUTO 02012G21KT 10SM SCT050 OVC060 16/09 A3015 RMK AO2 T01600085
KSUT 170405Z AUTO 02011G17KT 10SM BKN050 OVC060 16/09 A3014 RMK AO2 T01610085
KSUT 170345Z AUTO 02013G24KT 10SM SCT044 OVC050 16/09 A3015 RMK AO2 T01610085
KSUT 170325Z AUTO 02008G19KT 10SM BKN042 OVC050 16/09 A3015 RMK AO2 T01640090
KSUT 170305Z AUTO 03011G19KT 10SM OVC040 17/09 A3015 RMK AO2 T01650092
KSUT 170245Z AUTO 03012G19KT 10SM OVC040 16/09 A3014 RMK AO2 T01640092
KSUT 170225Z AUTO 03011G19KT 10SM OVC040 17/09 A3013 RMK AO2 T01650094
KSUT 170205Z AUTO 03009G23KT 10SM OVC038 17/10 A3013 RMK AO2 T01660095
KSUT 170145Z AUTO 02013G20KT 10SM OVC036 17/10 A3012 RMK AO2 T01660100
KSUT 170125Z AUTO 02012G20KT 350V050 10SM OVC034 17/10 A3011 RMK AO2 T01660104
KSUT 170105Z AUTO 01012G23KT 10SM OVC032 17/11 A3011 RMK AO2 T01660111
KSUT 170045Z AUTO 02012G17KT 10SM -DZ OVC032 16/11 A3010 RMK AO2 T01600105
KSUT 170025Z AUTO 02011G21KT 10SM OVC030 16/10 A3009 RMK AO2 T01580100
KSUT 170005Z AUTO 01015G21KT 10SM OVC028 16/10 A3009 RMK AO2 T01560101
KSUT 162345Z AUTO 01013G23KT 10SM BKN028 OVC050 16/10 A3008 RMK AO2 T01560104
KSUT 162325Z AUTO 02013G23KT 10SM BKN050 OVC060 16/10 A3006 RMK AO2 T01560104
KSUT 162305Z AUTO 02017G24KT 10SM SCT026 OVC050 16/11 A3005 RMK AO2 T01560111
KSUT 162245Z AUTO 01017G23KT 10SM SCT010 OVC024 16/12 A3005 RMK AO2 T01560119
KSUT 162225Z AUTO 01011G19KT 10SM OVC010 16/13 A3004 RMK AO2 T01560130
KSUT 162205Z AUTO 36013G20KT 10SM OVC010 16/14 A3003 RMK AO2 T01630137
KSUT 162145Z AUTO 36015G26KT 10SM OVC010 17/14 A3002 RMK AO2 T01700142
KSUT 162125Z AUTO 01012G20KT 10SM OVC010 19/16 A3000 RMK AO2 T01850156
KSUT 162105Z AUTO 35016G22KT 10SM BKN012 OVC050 20/18 A2998 RMK AO2 T01980175
KSUT 162045Z AUTO 35013G19KT 10SM -RA SCT014 BKN050 OVC090 21/19 A2998 RMK AO2 T02120187
KSUT 162025Z AUTO 36007G20KT 10SM SCT060 22/18 A2997 RMK AO2 T02240184
KSUT 162005Z AUTO 35011G17KT 10SM SCT014 SCT046 23/19 A2995 RMK AO2 T02300188
KSUT 161945Z AUTO 36013G19KT 10SM SCT014 SCT033 BKN080 25/20 A2995 RMK AO2 T02450198